createdAt,value
2022-08-31T00:00:10.270Z,6.22
2022-08-31T00:02:55.851Z,7.03
2022-08-31T00:05:24.104Z,7.40
2022-08-31T00:07:52.693Z,6.10
2022-08-31T00:10:32.004Z,9.27
2022-08-31T00:13:02.966Z,8.75
2022-08-31T00:15:31.662Z,5.97
2022-08-31T00:17:59.975Z,7.75
2022-08-31T00:20:33.334Z,7.50
2022-08-31T00:23:02.623Z,9.07
2022-08-31T00:25:32.132Z,7.50
2022-08-31T00:28:00.037Z,7.23
2022-08-31T00:30:28.079Z,5.78
2022-08-31T00:32:58.220Z,6.72
2022-08-31T00:35:27.336Z,6.40
2022-08-31T00:37:55.068Z,5.68
2022-08-31T00:40:23.678Z,7.00
2022-08-31T00:42:52.764Z,8.68
2022-08-31T00:45:20.954Z,8.77
2022-08-31T00:47:49.195Z,6.38
2022-08-31T00:50:18.758Z,6.95
2022-08-31T00:52:49.562Z,6.47
2022-08-31T00:55:25.692Z,7.18
2022-08-31T00:57:57.580Z,6.80
2022-08-31T01:00:28.580Z,5.85
2022-08-31T01:02:58.318Z,6.68
2022-08-31T01:05:26.490Z,5.60
2022-08-31T01:07:55.058Z,6.97
2022-08-31T01:10:26.063Z,5.57
2022-08-31T01:12:57.971Z,6.70
2022-08-31T01:15:26.808Z,10.05
2022-08-31T01:17:57.183Z,8.93
2022-08-31T01:20:33.568Z,8.30
2022-08-31T01:23:08.875Z,8.55
2022-08-31T01:25:38.635Z,6.85
2022-08-31T01:28:08.247Z,7.32
2022-08-31T01:30:38.018Z,6.73
2022-08-31T01:33:06.231Z,5.97
2022-08-31T01:35:34.738Z,5.65
2022-08-31T01:38:03.233Z,7.28
2022-08-31T01:40:37.251Z,6.22
2022-08-31T01:43:37.101Z,6.90
2022-08-31T01:46:06.226Z,5.95
2022-08-31T01:48:41.384Z,5.82
2022-08-31T01:51:10.788Z,6.30
2022-08-31T01:53:40.468Z,6.10
2022-08-31T01:56:14.454Z,6.93
2022-08-31T01:58:42.646Z,5.43
2022-08-31T02:01:28.125Z,6.07
2022-08-31T02:04:02.054Z,7.80
2022-08-31T02:06:29.925Z,7.43
2022-08-31T02:08:57.670Z,6.00
2022-08-31T02:11:26.671Z,7.53
2022-08-31T02:13:54.525Z,5.20
2022-08-31T02:16:22.722Z,6.75
2022-08-31T02:18:50.679Z,7.50
2022-08-31T02:21:18.870Z,6.57
2022-08-31T02:23:46.479Z,6.18
2022-08-31T02:26:14.796Z,5.75
2022-08-31T02:28:44.031Z,6.97
2022-08-31T02:31:11.839Z,6.78
2022-08-31T02:33:39.886Z,6.83
2022-08-31T02:36:08.412Z,6.80
2022-08-31T02:38:39.283Z,8.77
2022-08-31T02:41:07.561Z,5.07
2022-08-31T02:43:35.653Z,6.63
2022-08-31T02:46:04.764Z,7.00
2022-08-31T02:48:33.167Z,5.47
2022-08-31T02:51:06.329Z,6.00
2022-08-31T02:53:34.195Z,6.65
2022-08-31T02:56:02.130Z,6.35
2022-08-31T02:58:30.027Z,6.13
2022-08-31T03:00:59.213Z,6.15
2022-08-31T03:03:28.552Z,6.75
2022-08-31T03:05:56.206Z,6.25
2022-08-31T03:08:24.048Z,6.60
2022-08-31T03:10:51.873Z,6.53
2022-08-31T03:13:19.722Z,5.78
2022-08-31T03:15:48.482Z,5.45
2022-08-31T03:18:16.119Z,6.40
2022-08-31T03:20:45.071Z,7.45
2022-08-31T03:23:13.151Z,6.57
2022-08-31T03:25:41.055Z,5.72
2022-08-31T03:28:09.094Z,5.60
2022-08-31T03:30:36.943Z,5.65
2022-08-31T03:33:04.789Z,4.78
2022-08-31T03:35:32.868Z,5.47
2022-08-31T03:38:03.271Z,5.70
2022-08-31T03:40:31.484Z,5.55
2022-08-31T03:42:59.562Z,5.88
2022-08-31T03:45:28.044Z,6.93
2022-08-31T03:47:56.005Z,5.40
2022-08-31T03:50:23.672Z,5.80
2022-08-31T03:52:52.115Z,4.82
2022-08-31T03:55:22.957Z,5.35
2022-08-31T03:57:52.684Z,5.78
2022-08-31T04:00:20.407Z,4.70
2022-08-31T04:02:48.287Z,6.65
2022-08-31T04:05:16.499Z,5.18
2022-08-31T04:07:44.130Z,5.15
2022-08-31T04:10:12.366Z,5.68
2022-08-31T04:12:42.063Z,5.03
2022-08-31T04:15:10.989Z,6.43
2022-08-31T04:17:39.320Z,6.43
2022-08-31T04:20:08.307Z,6.97
2022-08-31T04:22:35.976Z,6.32
2022-08-31T04:25:04.271Z,6.20
2022-08-31T04:27:32.288Z,6.28
2022-08-31T04:30:02.190Z,7.15
2022-08-31T04:32:29.854Z,5.95
2022-08-31T04:34:58.253Z,5.88
2022-08-31T04:37:25.971Z,5.67
2022-08-31T04:39:59.142Z,6.90
2022-08-31T04:42:29.564Z,5.82
2022-08-31T04:44:57.906Z,5.13
2022-08-31T04:47:26.871Z,7.88
2022-08-31T04:49:54.952Z,5.90
2022-08-31T04:52:28.122Z,7.32
2022-08-31T04:54:56.606Z,5.28
2022-08-31T04:57:24.227Z,6.50
2022-08-31T04:59:52.019Z,7.35
2022-08-31T05:02:19.789Z,5.53
2022-08-31T05:04:48.909Z,4.70
2022-08-31T05:07:16.568Z,6.05
2022-08-31T05:09:44.399Z,5.13
2022-08-31T05:12:12.177Z,5.13
2022-08-31T05:14:40.187Z,6.10
2022-08-31T05:17:13.740Z,6.13
2022-08-31T05:19:42.890Z,4.68
2022-08-31T05:22:12.493Z,5.53
2022-08-31T05:24:41.730Z,5.63
2022-08-31T05:27:10.071Z,6.93
2022-08-31T05:29:37.840Z,6.00
2022-08-31T05:32:05.811Z,5.78
2022-08-31T05:34:33.655Z,5.43
2022-08-31T05:37:01.482Z,6.38
2022-08-31T05:39:32.175Z,5.63
2022-08-31T05:42:00.616Z,5.68
2022-08-31T05:44:29.472Z,5.10
2022-08-31T05:47:03.484Z,6.15
2022-08-31T05:49:32.550Z,7.38
2022-08-31T05:52:00.582Z,5.23
2022-08-31T05:54:30.053Z,5.15
2022-08-31T05:56:59.886Z,6.90
2022-08-31T05:59:30.251Z,5.28
2022-08-31T06:01:58.782Z,5.45
2022-08-31T06:04:26.799Z,5.53
2022-08-31T06:06:56.287Z,4.60
2022-08-31T06:09:24.298Z,6.28
2022-08-31T06:11:54.365Z,5.32
2022-08-31T06:14:22.886Z,4.43
2022-08-31T06:16:51.724Z,5.87
2022-08-31T06:19:20.847Z,6.55
2022-08-31T06:21:51.039Z,5.30
2022-08-31T06:24:19.546Z,5.53
2022-08-31T06:26:57.559Z,6.30
2022-08-31T06:29:31.775Z,5.77
2022-08-31T06:32:00.445Z,8.13
2022-08-31T06:34:33.133Z,9.35
2022-08-31T06:37:01.326Z,7.53
2022-08-31T06:39:29.472Z,5.55
2022-08-31T06:41:57.234Z,5.77
2022-08-31T06:44:25.061Z,5.40
2022-08-31T06:46:54.698Z,6.38
2022-08-31T06:49:23.442Z,5.53
2022-08-31T06:51:52.579Z,6.50
2022-08-31T06:54:29.313Z,5.83
2022-08-31T06:56:58.756Z,4.53
2022-08-31T06:59:29.356Z,7.18
2022-08-31T07:02:00.219Z,4.97
2022-08-31T07:04:28.751Z,5.45
2022-08-31T07:06:56.692Z,5.10
2022-08-31T07:09:25.301Z,5.57
2022-08-31T07:11:53.747Z,5.80
2022-08-31T07:14:23.444Z,5.78
2022-08-31T07:16:52.156Z,4.80
2022-08-31T07:19:23.504Z,5.43
2022-08-31T07:21:53.687Z,4.65
2022-08-31T07:24:24.634Z,4.53
2022-08-31T07:26:55.159Z,5.20
2022-08-31T07:29:24.225Z,7.15
2022-08-31T07:31:52.422Z,4.80
2022-08-31T07:34:25.955Z,6.60
2022-08-31T07:37:11.792Z,4.97
2022-08-31T07:39:58.029Z,4.78
2022-08-31T07:42:29.645Z,5.68
2022-08-31T07:44:59.880Z,4.30
2022-08-31T07:47:29.876Z,5.55
2022-08-31T07:50:01.172Z,5.97
2022-08-31T07:52:32.025Z,5.15
2022-08-31T07:55:07.838Z,4.68
2022-08-31T07:57:36.567Z,4.00
2022-08-31T08:00:09.260Z,5.50
2022-08-31T08:02:39.118Z,5.13
2022-08-31T08:05:12.377Z,4.05
2022-08-31T08:07:41.861Z,5.15
2022-08-31T08:10:14.438Z,4.47
2022-08-31T08:12:42.511Z,5.47
2022-08-31T08:15:11.754Z,4.68
2022-08-31T08:17:39.587Z,4.00
2022-08-31T08:20:13.485Z,4.57
2022-08-31T08:22:54.154Z,4.90
2022-08-31T08:25:25.704Z,5.57
2022-08-31T08:27:55.136Z,4.45
2022-08-31T08:30:23.174Z,4.63
2022-08-31T08:32:51.001Z,4.45
2022-08-31T08:35:21.585Z,5.00
2022-08-31T08:38:01.357Z,4.55
2022-08-31T08:40:39.713Z,5.70
2022-08-31T08:43:07.609Z,4.53
2022-08-31T08:45:36.694Z,6.53
2022-08-31T08:48:12.176Z,4.53
2022-08-31T08:50:42.801Z,3.85
2022-08-31T08:53:13.605Z,4.55
2022-08-31T08:55:43.126Z,4.30
2022-08-31T08:58:13.695Z,4.53
2022-08-31T09:00:46.939Z,7.43
2022-08-31T09:03:24.100Z,5.00
2022-08-31T09:06:01.968Z,5.35
2022-08-31T09:08:49.396Z,5.57
2022-08-31T09:11:23.960Z,4.35
2022-08-31T09:14:00.046Z,3.83
2022-08-31T09:16:39.242Z,6.03
2022-08-31T09:19:10.806Z,4.93
2022-08-31T09:21:51.859Z,6.82
2022-08-31T09:24:21.671Z,5.43
2022-08-31T09:27:00.361Z,5.20
2022-08-31T09:29:34.072Z,6.15
2022-08-31T09:32:06.417Z,4.40
2022-08-31T09:34:37.797Z,4.93
2022-08-31T09:37:16.504Z,4.95
2022-08-31T09:39:49.271Z,8.17
2022-08-31T09:42:31.245Z,5.25
2022-08-31T09:45:01.966Z,3.88
2022-08-31T09:47:52.635Z,3.55
2022-08-31T09:50:33.550Z,4.85
2022-08-31T09:53:38.762Z,4.10
2022-08-31T09:56:14.055Z,4.72
2022-08-31T09:58:44.289Z,4.40
2022-08-31T10:01:17.385Z,5.18
2022-08-31T10:03:45.528Z,5.97
2022-08-31T10:06:45.427Z,4.23
2022-08-31T10:09:26.291Z,4.10
2022-08-31T10:11:57.612Z,4.78
2022-08-31T10:14:34.624Z,4.15
2022-08-31T10:17:10.437Z,5.22
2022-08-31T10:19:53.116Z,4.33
2022-08-31T10:22:28.808Z,5.15
2022-08-31T10:25:15.560Z,4.10
2022-08-31T10:27:48.236Z,6.00
2022-08-31T10:30:23.657Z,4.00
2022-08-31T10:32:57.297Z,4.80
2022-08-31T10:35:37.438Z,6.43
2022-08-31T10:38:20.157Z,4.25
2022-08-31T10:40:52.730Z,5.63
2022-08-31T10:43:23.881Z,4.28
2022-08-31T10:45:54.445Z,4.27
2022-08-31T10:48:24.619Z,4.35
2022-08-31T10:51:05.985Z,5.10
2022-08-31T10:53:49.803Z,4.78
2022-08-31T10:56:35.725Z,13.52
2022-08-31T10:59:20.854Z,8.07
2022-08-31T11:01:56.614Z,9.73
2022-08-31T11:04:46.061Z,9.82
2022-08-31T11:07:25.198Z,10.07
2022-08-31T11:10:00.109Z,7.10
2022-08-31T11:12:42.393Z,5.70
2022-08-31T11:15:28.709Z,4.65
2022-08-31T11:18:36.269Z,5.38
2022-08-31T11:21:30.235Z,4.65
2022-08-31T11:24:08.445Z,4.40
2022-08-31T11:26:47.433Z,3.93
2022-08-31T11:29:29.135Z,5.78
2022-08-31T11:32:04.963Z,3.55
2022-08-31T11:34:47.249Z,5.25
2022-08-31T11:37:56.000Z,3.70
2022-08-31T11:41:12.213Z,3.87
2022-08-31T11:43:49.006Z,4.35
2022-08-31T11:47:02.155Z,4.50
2022-08-31T11:49:50.348Z,5.05
2022-08-31T11:52:43.495Z,3.67
2022-08-31T11:55:18.359Z,5.17
2022-08-31T11:58:26.626Z,3.40
2022-08-31T12:01:03.027Z,4.43
2022-08-31T12:03:46.027Z,4.30
2022-08-31T12:06:47.806Z,5.45
2022-08-31T12:09:39.046Z,3.50
2022-08-31T12:12:19.771Z,3.97
2022-08-31T12:14:53.068Z,5.53
2022-08-31T12:17:25.879Z,6.93
2022-08-31T12:20:02.570Z,4.93
2022-08-31T12:23:09.341Z,3.43
2022-08-31T12:25:47.133Z,4.07
2022-08-31T12:28:27.454Z,5.60
2022-08-31T12:30:59.272Z,3.85
2022-08-31T12:33:29.178Z,3.45
2022-08-31T12:36:12.928Z,4.03
2022-08-31T12:38:40.726Z,4.93
2022-08-31T12:41:12.170Z,4.88
2022-08-31T12:43:43.734Z,3.95
2022-08-31T12:46:32.982Z,3.30
2022-08-31T12:49:21.851Z,4.47
2022-08-31T12:51:57.756Z,4.43
2022-08-31T12:54:50.533Z,6.78
2022-08-31T12:57:36.667Z,5.05
2022-08-31T13:00:08.465Z,5.07
2022-08-31T13:02:43.331Z,6.23
2022-08-31T13:05:22.864Z,5.35
2022-08-31T13:08:02.224Z,4.10
2022-08-31T13:10:34.753Z,6.35
2022-08-31T13:13:04.644Z,4.15
2022-08-31T13:15:39.412Z,6.77
2022-08-31T13:18:11.755Z,3.88
2022-08-31T13:20:43.564Z,5.50
2022-08-31T13:23:15.189Z,4.05
2022-08-31T13:25:48.424Z,3.40
2022-08-31T13:28:30.098Z,3.90
2022-08-31T13:31:03.085Z,6.18
2022-08-31T13:33:32.972Z,4.72
2022-08-31T13:36:04.627Z,4.00
2022-08-31T13:38:42.475Z,5.20
2022-08-31T13:41:23.887Z,3.93
2022-08-31T13:43:58.858Z,3.42
2022-08-31T13:46:41.829Z,4.78
2022-08-31T13:49:26.102Z,3.80
2022-08-31T13:51:53.819Z,3.60
2022-08-31T13:54:30.612Z,3.50
2022-08-31T13:57:10.945Z,3.65
2022-08-31T13:59:40.855Z,4.30
2022-08-31T14:02:37.268Z,3.20
2022-08-31T14:05:09.953Z,4.45
2022-08-31T14:07:57.654Z,4.30
2022-08-31T14:10:29.485Z,4.75
2022-08-31T14:12:59.935Z,3.08
2022-08-31T14:15:38.120Z,3.92
2022-08-31T14:18:26.940Z,3.67
2022-08-31T14:21:21.547Z,3.90
2022-08-31T14:23:52.599Z,3.90
2022-08-31T14:26:28.028Z,3.63
2022-08-31T14:29:00.704Z,3.67
2022-08-31T14:31:33.801Z,3.60
2022-08-31T14:34:10.559Z,3.70
2022-08-31T14:36:44.655Z,3.75
2022-08-31T14:39:12.976Z,4.32
2022-08-31T14:41:41.936Z,3.10
2022-08-31T14:44:10.401Z,2.90
2022-08-31T14:46:39.671Z,4.90
2022-08-31T14:49:08.068Z,3.22
2022-08-31T14:51:38.515Z,4.13
2022-08-31T14:54:09.057Z,3.63
2022-08-31T14:56:45.324Z,3.08
2022-08-31T14:59:16.898Z,3.33
2022-08-31T15:01:46.242Z,3.17
2022-08-31T15:04:16.423Z,3.58
2022-08-31T15:06:48.198Z,3.22
2022-08-31T15:09:15.741Z,3.35
2022-08-31T15:11:43.770Z,3.67
2022-08-31T15:14:12.386Z,3.53
2022-08-31T15:16:43.966Z,4.13
2022-08-31T15:19:13.574Z,4.03
2022-08-31T15:21:52.259Z,3.15
2022-08-31T15:24:24.220Z,5.97
2022-08-31T15:26:53.698Z,6.40
2022-08-31T15:29:24.850Z,9.95
2022-08-31T15:31:55.296Z,5.20
2022-08-31T15:34:26.349Z,3.95
2022-08-31T15:36:56.134Z,4.93
2022-08-31T15:39:24.463Z,2.42
2022-08-31T15:41:52.238Z,3.50
2022-08-31T15:44:19.908Z,3.70
2022-08-31T15:47:05.810Z,4.03
2022-08-31T15:49:37.606Z,3.40
2022-08-31T15:52:06.913Z,4.57
2022-08-31T15:54:35.878Z,3.60
2022-08-31T15:57:06.128Z,2.78
2022-08-31T15:59:35.286Z,2.92
2022-08-31T16:02:03.459Z,3.03
2022-08-31T16:04:33.311Z,2.35
2022-08-31T16:07:05.356Z,3.30
2022-08-31T16:09:33.006Z,3.50
2022-08-31T16:12:02.243Z,3.15
2022-08-31T16:14:31.907Z,2.93
2022-08-31T16:17:00.415Z,2.88
2022-08-31T16:19:35.418Z,2.83
2022-08-31T16:22:07.833Z,3.03
2022-08-31T16:24:37.371Z,2.88
2022-08-31T16:27:08.146Z,3.10
2022-08-31T16:29:37.285Z,2.85
2022-08-31T16:32:06.932Z,3.50
2022-08-31T16:34:35.506Z,3.00
2022-08-31T16:37:07.575Z,3.53
2022-08-31T16:39:36.190Z,2.87
2022-08-31T16:42:04.856Z,3.47
2022-08-31T16:44:36.898Z,3.22
2022-08-31T16:47:06.854Z,2.72
2022-08-31T16:49:33.757Z,3.05
2022-08-31T16:52:03.444Z,3.37
2022-08-31T16:54:33.268Z,3.20
2022-08-31T16:57:01.400Z,2.47
2022-08-31T16:59:30.490Z,3.35
2022-08-31T17:01:59.595Z,3.30
2022-08-31T17:04:51.010Z,3.10
2022-08-31T17:07:17.789Z,3.50
2022-08-31T17:09:47.198Z,2.63
2022-08-31T17:12:17.772Z,3.67
2022-08-31T17:14:48.476Z,2.63
2022-08-31T17:17:19.060Z,5.10
2022-08-31T17:19:48.187Z,3.83
2022-08-31T17:22:25.681Z,2.72
2022-08-31T17:24:58.408Z,5.63
2022-08-31T17:27:27.900Z,3.10
2022-08-31T17:29:58.141Z,3.83
2022-08-31T17:32:27.515Z,3.58
2022-08-31T17:34:56.875Z,3.60
2022-08-31T17:37:27.834Z,3.05
2022-08-31T17:39:57.820Z,2.28
2022-08-31T17:42:28.087Z,3.20
2022-08-31T17:44:56.456Z,3.85
2022-08-31T17:47:25.894Z,2.72
2022-08-31T17:49:54.250Z,3.03
2022-08-31T17:52:23.274Z,2.70
2022-08-31T17:54:52.303Z,2.90
2022-08-31T17:57:25.434Z,4.93
2022-08-31T17:59:55.077Z,3.10
2022-08-31T18:02:26.591Z,3.45
2022-08-31T18:04:54.571Z,3.20
2022-08-31T18:07:22.423Z,3.70
2022-08-31T18:09:50.719Z,3.95
2022-08-31T18:12:22.229Z,3.63
2022-08-31T18:14:51.528Z,3.92
2022-08-31T18:17:21.616Z,3.25
2022-08-31T18:19:49.888Z,4.27
2022-08-31T18:22:18.485Z,3.95
2022-08-31T18:24:46.772Z,4.55
2022-08-31T18:27:16.162Z,3.25
2022-08-31T18:29:45.302Z,5.03
2022-08-31T18:32:15.245Z,3.50
2022-08-31T18:34:47.622Z,3.13
2022-08-31T18:37:22.329Z,3.58
2022-08-31T18:40:08.538Z,3.38
2022-08-31T18:42:57.024Z,3.47
2022-08-31T18:45:25.998Z,4.47
2022-08-31T18:50:46.121Z,4.78
2022-08-31T18:53:28.771Z,3.78
2022-08-31T18:55:58.024Z,4.15
2022-08-31T18:58:25.815Z,5.20
2022-08-31T19:00:58.356Z,3.25
2022-08-31T19:03:28.252Z,4.20
2022-08-31T19:05:56.723Z,4.00
2022-08-31T19:08:24.987Z,4.22
2022-08-31T19:10:54.296Z,3.90
2022-08-31T19:13:22.111Z,3.88
2022-08-31T19:15:49.991Z,4.20
2022-08-31T19:18:17.928Z,3.75
2022-08-31T19:20:47.173Z,4.32
2022-08-31T19:23:19.863Z,4.77
2022-08-31T19:25:48.693Z,4.35
2022-08-31T19:28:16.417Z,4.80
2022-08-31T19:30:47.666Z,4.60
2022-08-31T19:33:16.447Z,3.70
2022-08-31T19:35:44.477Z,3.87
2022-08-31T19:38:14.383Z,4.07
2022-08-31T19:40:42.484Z,3.90
2022-08-31T19:46:09.575Z,4.85
2022-08-31T19:48:45.987Z,5.67
2022-08-31T19:51:15.916Z,4.65
2022-08-31T19:53:45.488Z,4.32
2022-08-31T19:56:17.529Z,4.30
2022-08-31T19:58:47.066Z,3.70
2022-08-31T20:01:15.705Z,3.53
2022-08-31T20:03:43.644Z,5.28
2022-08-31T20:06:13.660Z,4.53
2022-08-31T20:08:43.443Z,3.15
2022-08-31T20:11:19.401Z,4.00
2022-08-31T20:13:52.624Z,3.33
2022-08-31T20:16:22.545Z,3.38
2022-08-31T20:18:57.745Z,3.92
2022-08-31T20:21:28.657Z,5.72
2022-08-31T20:23:57.974Z,4.93
2022-08-31T20:26:32.998Z,5.70
2022-08-31T20:29:04.260Z,4.88
2022-08-31T20:31:33.750Z,4.07
2022-08-31T20:34:01.902Z,4.82
2022-08-31T20:36:33.046Z,4.63
2022-08-31T20:39:02.931Z,4.90
2022-08-31T20:41:35.070Z,4.78
2022-08-31T20:44:10.258Z,4.72
2022-08-31T20:47:00.403Z,4.75
2022-08-31T20:49:29.979Z,4.15
2022-08-31T20:51:59.173Z,3.57
2022-08-31T20:54:32.211Z,4.63
2022-08-31T20:57:04.303Z,5.80
2022-08-31T20:59:33.568Z,4.97
2022-08-31T21:02:04.183Z,5.15
2022-08-31T21:04:33.388Z,4.63
2022-08-31T21:07:02.363Z,3.92
2022-08-31T21:09:30.313Z,4.78
2022-08-31T21:11:59.694Z,3.85
2022-08-31T21:14:30.799Z,4.55
2022-08-31T21:16:59.161Z,6.60
2022-08-31T21:19:26.950Z,4.15
2022-08-31T21:22:02.107Z,4.55
2022-08-31T21:24:29.973Z,3.90
2022-08-31T21:26:59.164Z,5.18
2022-08-31T21:29:29.138Z,5.67
2022-08-31T21:32:03.422Z,4.60
2022-08-31T21:34:32.831Z,5.20
2022-08-31T21:37:00.897Z,5.22
2022-08-31T21:39:28.824Z,5.28
2022-08-31T21:41:56.688Z,5.07
2022-08-31T21:44:24.439Z,5.38
2022-08-31T21:46:53.528Z,5.80
2022-08-31T21:49:21.680Z,6.15
2022-08-31T21:51:52.419Z,5.72
2022-08-31T21:54:23.670Z,5.77
2022-08-31T21:56:53.420Z,6.45
2022-08-31T21:59:23.718Z,6.85
2022-08-31T22:01:59.210Z,7.32
2022-08-31T22:04:28.026Z,7.35
2022-08-31T22:06:56.100Z,6.60
2022-08-31T22:09:24.963Z,6.25
2022-08-31T22:11:56.597Z,5.25
2022-08-31T22:14:29.321Z,6.68
2022-08-31T22:16:59.584Z,5.55
2022-08-31T22:19:28.477Z,5.90
2022-08-31T22:21:59.135Z,5.45
2022-08-31T22:24:29.183Z,7.55
2022-08-31T22:26:58.844Z,6.07
2022-08-31T22:29:31.346Z,6.93
2022-08-31T22:32:02.263Z,8.20
2022-08-31T22:34:30.699Z,6.30
2022-08-31T22:36:58.381Z,7.20
2022-08-31T22:39:29.446Z,7.90
2022-08-31T22:41:58.294Z,6.25
2022-08-31T22:44:29.562Z,8.20
2022-08-31T22:46:57.230Z,7.80
2022-08-31T22:49:27.114Z,7.43
2022-08-31T22:51:55.287Z,6.32
2022-08-31T22:54:22.983Z,6.15
2022-08-31T22:56:51.664Z,6.60
2022-08-31T22:59:26.082Z,7.15
2022-08-31T23:01:55.893Z,7.45
2022-08-31T23:04:26.403Z,6.53
2022-08-31T23:06:57.367Z,6.03
2022-08-31T23:09:27.934Z,6.20
2022-08-31T23:11:56.411Z,6.13
2022-08-31T23:14:24.899Z,7.57
2022-08-31T23:16:57.252Z,6.00
2022-08-31T23:19:32.945Z,5.97
2022-08-31T23:22:03.837Z,6.97
2022-08-31T23:24:36.697Z,6.40
2022-08-31T23:27:07.723Z,6.90
2022-08-31T23:29:39.943Z,6.40
2022-08-31T23:32:08.912Z,7.55
2022-08-31T23:34:38.585Z,6.07
2022-08-31T23:37:08.868Z,6.22
2022-08-31T23:39:38.972Z,4.43
2022-08-31T23:42:07.887Z,4.95
2022-08-31T23:44:36.160Z,4.95
2022-08-31T23:47:04.039Z,7.30
2022-08-31T23:49:31.595Z,5.43
2022-08-31T23:51:59.311Z,6.00
2022-08-31T23:54:29.559Z,4.97
2022-08-31T23:56:57.787Z,7.50
2022-08-31T23:59:26.458Z,5.33
